sensor_id;sensor_type;location;lat;lon;timestamp;pressure;altitude;pressure_sealevel;temperature
14851;BMP180;7517;48.400;11.770;2023-03-01T00:01:21;96988.00;;;7.50
14851;BMP180;7517;48.400;11.770;2023-03-01T00:03:50;96993.00;;;7.50
14851;BMP180;7517;48.400;11.770;2023-03-01T00:06:19;96984.00;;;7.50
14851;BMP180;7517;48.400;11.770;2023-03-01T00:08:48;96980.00;;;7.50
14851;BMP180;7517;48.400;11.770;2023-03-01T00:11:18;96982.00;;;7.50
14851;BMP180;7517;48.400;11.770;2023-03-01T00:13:48;96982.00;;;7.50
14851;BMP180;7517;48.400;11.770;2023-03-01T00:16:20;96979.00;;;7.40
14851;BMP180;7517;48.400;11.770;2023-03-01T00:18:50;96974.00;;;7.50
14851;BMP180;7517;48.400;11.770;2023-03-01T00:21:20;96972.00;;;7.50
14851;BMP180;7517;48.400;11.770;2023-03-01T00:23:48;96974.00;;;7.50
14851;BMP180;7517;48.400;11.770;2023-03-01T00:26:18;96971.00;;;7.50
14851;BMP180;7517;48.400;11.770;2023-03-01T00:28:47;96974.00;;;7.40
14851;BMP180;7517;48.400;11.770;2023-03-01T00:31:17;96971.00;;;7.40
14851;BMP180;7517;48.400;11.770;2023-03-01T00:33:45;96965.00;;;7.40
14851;BMP180;7517;48.400;11.770;2023-03-01T00:36:16;96959.00;;;7.40
14851;BMP180;7517;48.400;11.770;2023-03-01T00:38:45;96963.00;;;7.40
14851;BMP180;7517;48.400;11.770;2023-03-01T00:41:16;96953.00;;;7.40
14851;BMP180;7517;48.400;11.770;2023-03-01T00:43:45;96957.00;;;7.40
14851;BMP180;7517;48.400;11.770;2023-03-01T00:46:15;96959.00;;;7.40
14851;BMP180;7517;48.400;11.770;2023-03-01T00:48:44;96954.00;;;7.40
14851;BMP180;7517;48.400;11.770;2023-03-01T00:51:16;96947.00;;;7.40
14851;BMP180;7517;48.400;11.770;2023-03-01T00:53:44;96954.00;;;7.40
14851;BMP180;7517;48.400;11.770;2023-03-01T00:56:14;96948.00;;;7.40
14851;BMP180;7517;48.400;11.770;2023-03-01T00:58:42;96942.00;;;7.40
14851;BMP180;7517;48.400;11.770;2023-03-01T01:01:12;96939.00;;;7.40
14851;BMP180;7517;48.400;11.770;2023-03-01T01:03:46;96930.00;;;7.40
14851;BMP180;7517;48.400;11.770;2023-03-01T01:06:18;96920.00;;;7.40
14851;BMP180;7517;48.400;11.770;2023-03-01T01:08:46;96937.00;;;7.40
14851;BMP180;7517;48.400;11.770;2023-03-01T01:11:14;96923.00;;;7.40
14851;BMP180;7517;48.400;11.770;2023-03-01T01:13:43;96922.00;;;7.40
14851;BMP180;7517;48.400;11.770;2023-03-01T01:16:10;96918.00;;;7.40
14851;BMP180;7517;48.400;11.770;2023-03-01T01:18:39;96920.00;;;7.30
14851;BMP180;7517;48.400;11.770;2023-03-01T01:21:08;96922.00;;;7.40
14851;BMP180;7517;48.400;11.770;2023-03-01T01:23:39;96917.00;;;7.30
14851;BMP180;7517;48.400;11.770;2023-03-01T01:26:10;96915.00;;;7.30
14851;BMP180;7517;48.400;11.770;2023-03-01T01:28:38;96909.00;;;7.30
14851;BMP180;7517;48.400;11.770;2023-03-01T01:31:06;96910.00;;;7.30
14851;BMP180;7517;48.400;11.770;2023-03-01T01:33:35;96908.00;;;7.30
14851;BMP180;7517;48.400;11.770;2023-03-01T01:36:04;96906.00;;;7.30
14851;BMP180;7517;48.400;11.770;2023-03-01T01:38:31;96902.00;;;7.30
14851;BMP180;7517;48.400;11.770;2023-03-01T01:41:00;96902.00;;;7.30
14851;BMP180;7517;48.400;11.770;2023-03-01T01:43:32;96901.00;;;7.30
14851;BMP180;7517;48.400;11.770;2023-03-01T01:46:06;96903.00;;;7.30
14851;BMP180;7517;48.400;11.770;2023-03-01T01:48:43;96903.00;;;7.30
14851;BMP180;7517;48.400;11.770;2023-03-01T01:51:18;96904.00;;;7.30
14851;BMP180;7517;48.400;11.770;2023-03-01T01:53:52;96905.00;;;7.30
14851;BMP180;7517;48.400;11.770;2023-03-01T01:56:26;96905.00;;;7.20
14851;BMP180;7517;48.400;11.770;2023-03-01T01:58:55;96895.00;;;7.20
14851;BMP180;7517;48.400;11.770;2023-03-01T02:01:23;96899.00;;;7.20
14851;BMP180;7517;48.400;11.770;2023-03-01T02:03:51;96902.00;;;7.20
14851;BMP180;7517;48.400;11.770;2023-03-01T02:06:26;96894.00;;;7.20
14851;BMP180;7517;48.400;11.770;2023-03-01T02:08:59;96898.00;;;7.20
14851;BMP180;7517;48.400;11.770;2023-03-01T02:11:31;96901.00;;;7.20
14851;BMP180;7517;48.400;11.770;2023-03-01T02:13:59;96897.00;;;7.20
14851;BMP180;7517;48.400;11.770;2023-03-01T02:16:28;96891.00;;;7.10
14851;BMP180;7517;48.400;11.770;2023-03-01T02:18:57;96878.00;;;7.10
14851;BMP180;7517;48.400;11.770;2023-03-01T02:21:38;96876.00;;;7.10
14851;BMP180;7517;48.400;11.770;2023-03-01T02:24:21;96871.00;;;7.10
14851;BMP180;7517;48.400;11.770;2023-03-01T02:26:56;96875.00;;;7.10
14851;BMP180;7517;48.400;11.770;2023-03-01T02:29:27;96871.00;;;7.10
14851;BMP180;7517;48.400;11.770;2023-03-01T02:31:59;96881.00;;;7.00
14851;BMP180;7517;48.400;11.770;2023-03-01T02:34:31;96882.00;;;7.00
14851;BMP180;7517;48.400;11.770;2023-03-01T02:37:02;96881.00;;;7.00
14851;BMP180;7517;48.400;11.770;2023-03-01T02:39:36;96871.00;;;7.00
14851;BMP180;7517;48.400;11.770;2023-03-01T02:42:14;96873.00;;;7.00
14851;BMP180;7517;48.400;11.770;2023-03-01T02:44:44;96875.00;;;6.90
14851;BMP180;7517;48.400;11.770;2023-03-01T02:47:11;96871.00;;;6.90
14851;BMP180;7517;48.400;11.770;2023-03-01T02:49:39;96867.00;;;6.90
14851;BMP180;7517;48.400;11.770;2023-03-01T02:52:53;96863.00;;;6.80
14851;BMP180;7517;48.400;11.770;2023-03-01T02:55:23;96867.00;;;6.80
14851;BMP180;7517;48.400;11.770;2023-03-01T02:57:51;96859.00;;;6.70
14851;BMP180;7517;48.400;11.770;2023-03-01T03:00:25;96863.00;;;6.70
14851;BMP180;7517;48.400;11.770;2023-03-01T03:02:54;96864.00;;;6.70
14851;BMP180;7517;48.400;11.770;2023-03-01T03:05:27;96861.00;;;6.60
14851;BMP180;7517;48.400;11.770;2023-03-01T03:07:56;96858.00;;;6.60
14851;BMP180;7517;48.400;11.770;2023-03-01T03:10:28;96860.00;;;6.50
14851;BMP180;7517;48.400;11.770;2023-03-01T03:12:59;96858.00;;;6.40
14851;BMP180;7517;48.400;11.770;2023-03-01T03:15:29;96863.00;;;6.40
14851;BMP180;7517;48.400;11.770;2023-03-01T03:17:58;96853.00;;;6.30
14851;BMP180;7517;48.400;11.770;2023-03-01T03:20:28;96852.00;;;6.20
14851;BMP180;7517;48.400;11.770;2023-03-01T03:22:57;96847.00;;;6.10
14851;BMP180;7517;48.400;11.770;2023-03-01T03:25:26;96848.00;;;6.10
14851;BMP180;7517;48.400;11.770;2023-03-01T03:27:56;96847.00;;;6.00
14851;BMP180;7517;48.400;11.770;2023-03-01T03:30:29;96850.00;;;5.90
14851;BMP180;7517;48.400;11.770;2023-03-01T03:32:57;96852.00;;;5.90
14851;BMP180;7517;48.400;11.770;2023-03-01T03:35:29;96849.00;;;5.80
14851;BMP180;7517;48.400;11.770;2023-03-01T03:37:59;96841.00;;;5.80
14851;BMP180;7517;48.400;11.770;2023-03-01T03:40:32;96843.00;;;5.70
14851;BMP180;7517;48.400;11.770;2023-03-01T03:43:00;96843.00;;;5.70
14851;BMP180;7517;48.400;11.770;2023-03-01T03:45:30;96839.00;;;5.60
14851;BMP180;7517;48.400;11.770;2023-03-01T03:47:59;96838.00;;;5.60
14851;BMP180;7517;48.400;11.770;2023-03-01T03:50:26;96835.00;;;5.50
14851;BMP180;7517;48.400;11.770;2023-03-01T03:52:54;96837.00;;;5.50
14851;BMP180;7517;48.400;11.770;2023-03-01T03:55:23;96839.00;;;5.40
14851;BMP180;7517;48.400;11.770;2023-03-01T03:57:58;96825.00;;;5.40
14851;BMP180;7517;48.400;11.770;2023-03-01T04:00:29;96823.00;;;5.30
14851;BMP180;7517;48.400;11.770;2023-03-01T04:02:56;96819.00;;;5.30
14851;BMP180;7517;48.400;11.770;2023-03-01T04:05:24;96818.00;;;5.20
14851;BMP180;7517;48.400;11.770;2023-03-01T04:07:52;96815.00;;;5.20
14851;BMP180;7517;48.400;11.770;2023-03-01T04:10:36;96813.00;;;5.10
14851;BMP180;7517;48.400;11.770;2023-03-01T04:13:04;96820.00;;;5.10
14851;BMP180;7517;48.400;11.770;2023-03-01T04:15:34;96814.00;;;5.00
14851;BMP180;7517;48.400;11.770;2023-03-01T04:18:03;96804.00;;;5.00
14851;BMP180;7517;48.400;11.770;2023-03-01T04:20:33;96813.00;;;5.00
14851;BMP180;7517;48.400;11.770;2023-03-01T04:23:07;96810.00;;;4.90
14851;BMP180;7517;48.400;11.770;2023-03-01T04:25:40;96807.00;;;4.90
14851;BMP180;7517;48.400;11.770;2023-03-01T04:28:09;96814.00;;;4.90
14851;BMP180;7517;48.400;11.770;2023-03-01T04:30:38;96815.00;;;4.90
14851;BMP180;7517;48.400;11.770;2023-03-01T04:33:11;96807.00;;;4.80
14851;BMP180;7517;48.400;11.770;2023-03-01T04:35:39;96807.00;;;4.80
14851;BMP180;7517;48.400;11.770;2023-03-01T04:38:08;96804.00;;;4.80
14851;BMP180;7517;48.400;11.770;2023-03-01T04:40:36;96810.00;;;4.70
14851;BMP180;7517;48.400;11.770;2023-03-01T04:43:04;96800.00;;;4.70
14851;BMP180;7517;48.400;11.770;2023-03-01T04:45:33;96804.00;;;4.70
14851;BMP180;7517;48.400;11.770;2023-03-01T04:48:04;96809.00;;;4.70
14851;BMP180;7517;48.400;11.770;2023-03-01T04:50:32;96801.00;;;4.60
14851;BMP180;7517;48.400;11.770;2023-03-01T04:53:00;96801.00;;;4.60
14851;BMP180;7517;48.400;11.770;2023-03-01T04:55:28;96804.00;;;4.60
14851;BMP180;7517;48.400;11.770;2023-03-01T04:57:56;96793.00;;;4.60
14851;BMP180;7517;48.400;11.770;2023-03-01T05:00:23;96793.00;;;4.50
14851;BMP180;7517;48.400;11.770;2023-03-01T05:02:54;96784.00;;;4.50
14851;BMP180;7517;48.400;11.770;2023-03-01T05:05:28;96786.00;;;4.50
14851;BMP180;7517;48.400;11.770;2023-03-01T05:07:58;96781.00;;;4.50
14851;BMP180;7517;48.400;11.770;2023-03-01T05:10:27;96779.00;;;4.50
14851;BMP180;7517;48.400;11.770;2023-03-01T05:12:57;96773.00;;;4.40
14851;BMP180;7517;48.400;11.770;2023-03-01T05:15:25;96777.00;;;4.40
14851;BMP180;7517;48.400;11.770;2023-03-01T05:17:54;96784.00;;;4.40
14851;BMP180;7517;48.400;11.770;2023-03-01T05:20:26;96776.00;;;4.40
14851;BMP180;7517;48.400;11.770;2023-03-01T05:22:59;96777.00;;;4.40
14851;BMP180;7517;48.400;11.770;2023-03-01T05:25:33;96778.00;;;4.40
14851;BMP180;7517;48.400;11.770;2023-03-01T05:28:07;96774.00;;;4.30
14851;BMP180;7517;48.400;11.770;2023-03-01T05:30:38;96774.00;;;4.30
14851;BMP180;7517;48.400;11.770;2023-03-01T05:33:06;96783.00;;;4.30
14851;BMP180;7517;48.400;11.770;2023-03-01T05:35:41;96787.00;;;4.30
14851;BMP180;7517;48.400;11.770;2023-03-01T05:38:09;96779.00;;;4.30
14851;BMP180;7517;48.400;11.770;2023-03-01T05:40:39;96778.00;;;4.20
14851;BMP180;7517;48.400;11.770;2023-03-01T05:43:07;96788.00;;;4.20
14851;BMP180;7517;48.400;11.770;2023-03-01T05:45:37;96774.00;;;4.20
14851;BMP180;7517;48.400;11.770;2023-03-01T05:48:06;96780.00;;;4.20
14851;BMP180;7517;48.400;11.770;2023-03-01T05:50:36;96779.00;;;4.20
14851;BMP180;7517;48.400;11.770;2023-03-01T05:53:10;96778.00;;;4.20
14851;BMP180;7517;48.400;11.770;2023-03-01T05:55:39;96779.00;;;4.10
14851;BMP180;7517;48.400;11.770;2023-03-01T05:58:10;96782.00;;;4.10
14851;BMP180;7517;48.400;11.770;2023-03-01T06:00:42;96781.00;;;4.20
14851;BMP180;7517;48.400;11.770;2023-03-01T06:03:14;96778.00;;;4.20
14851;BMP180;7517;48.400;11.770;2023-03-01T06:05:43;96783.00;;;4.20
14851;BMP180;7517;48.400;11.770;2023-03-01T06:08:13;96781.00;;;4.30
14851;BMP180;7517;48.400;11.770;2023-03-01T06:10:40;96777.00;;;4.30
14851;BMP180;7517;48.400;11.770;2023-03-01T06:13:08;96784.00;;;4.30
14851;BMP180;7517;48.400;11.770;2023-03-01T06:15:36;96788.00;;;4.30
14851;BMP180;7517;48.400;11.770;2023-03-01T06:18:04;96783.00;;;4.40
14851;BMP180;7517;48.400;11.770;2023-03-01T06:20:31;96787.00;;;4.40
14851;BMP180;7517;48.400;11.770;2023-03-01T06:22:59;96803.00;;;4.40
14851;BMP180;7517;48.400;11.770;2023-03-01T06:25:28;96790.00;;;4.40
14851;BMP180;7517;48.400;11.770;2023-03-01T06:27:57;96796.00;;;4.40
14851;BMP180;7517;48.400;11.770;2023-03-01T06:30:26;96797.00;;;4.40
14851;BMP180;7517;48.400;11.770;2023-03-01T06:32:54;96796.00;;;4.40
14851;BMP180;7517;48.400;11.770;2023-03-01T06:35:27;96790.00;;;4.40
14851;BMP180;7517;48.400;11.770;2023-03-01T06:37:58;96795.00;;;4.40
14851;BMP180;7517;48.400;11.770;2023-03-01T06:40:30;96805.00;;;4.50
14851;BMP180;7517;48.400;11.770;2023-03-01T06:42:58;96802.00;;;4.50
14851;BMP180;7517;48.400;11.770;2023-03-01T06:45:31;96807.00;;;4.50
14851;BMP180;7517;48.400;11.770;2023-03-01T06:48:03;96803.00;;;4.50
14851;BMP180;7517;48.400;11.770;2023-03-01T06:50:32;96801.00;;;4.60
14851;BMP180;7517;48.400;11.770;2023-03-01T06:53:00;96801.00;;;4.60
14851;BMP180;7517;48.400;11.770;2023-03-01T06:55:29;96800.00;;;4.60
14851;BMP180;7517;48.400;11.770;2023-03-01T06:58:00;96803.00;;;4.60
14851;BMP180;7517;48.400;11.770;2023-03-01T07:00:28;96797.00;;;4.70
14851;BMP180;7517;48.400;11.770;2023-03-01T07:02:59;96794.00;;;4.70
14851;BMP180;7517;48.400;11.770;2023-03-01T07:05:28;96796.00;;;4.70
14851;BMP180;7517;48.400;11.770;2023-03-01T07:07:56;96796.00;;;4.80
14851;BMP180;7517;48.400;11.770;2023-03-01T07:10:24;96797.00;;;4.80
14851;BMP180;7517;48.400;11.770;2023-03-01T07:12:56;96786.00;;;4.80
14851;BMP180;7517;48.400;11.770;2023-03-01T07:15:25;96798.00;;;4.80
14851;BMP180;7517;48.400;11.770;2023-03-01T07:17:53;96786.00;;;4.80
14851;BMP180;7517;48.400;11.770;2023-03-01T07:20:20;96781.00;;;4.90
14851;BMP180;7517;48.400;11.770;2023-03-01T07:22:50;96785.00;;;4.90
14851;BMP180;7517;48.400;11.770;2023-03-01T07:25:18;96775.00;;;4.90
14851;BMP180;7517;48.400;11.770;2023-03-01T07:27:50;96782.00;;;5.00
14851;BMP180;7517;48.400;11.770;2023-03-01T07:30:21;96784.00;;;5.00
14851;BMP180;7517;48.400;11.770;2023-03-01T07:32:51;96785.00;;;5.10
14851;BMP180;7517;48.400;11.770;2023-03-01T07:35:19;96776.00;;;5.10
14851;BMP180;7517;48.400;11.770;2023-03-01T07:37:46;96780.00;;;5.10
14851;BMP180;7517;48.400;11.770;2023-03-01T07:40:14;96775.00;;;5.20
14851;BMP180;7517;48.400;11.770;2023-03-01T07:42:42;96773.00;;;5.20
14851;BMP180;7517;48.400;11.770;2023-03-01T07:45:11;96779.00;;;5.30
14851;BMP180;7517;48.400;11.770;2023-03-01T07:47:40;96781.00;;;5.30
14851;BMP180;7517;48.400;11.770;2023-03-01T07:50:10;96776.00;;;5.40
14851;BMP180;7517;48.400;11.770;2023-03-01T07:52:39;96769.00;;;5.40
14851;BMP180;7517;48.400;11.770;2023-03-01T07:55:07;96775.00;;;5.50
14851;BMP180;7517;48.400;11.770;2023-03-01T07:57:35;96771.00;;;5.60
14851;BMP180;7517;48.400;11.770;2023-03-01T08:00:06;96773.00;;;5.60
14851;BMP180;7517;48.400;11.770;2023-03-01T08:02:33;96777.00;;;5.70
14851;BMP180;7517;48.400;11.770;2023-03-01T08:05:02;96777.00;;;5.80
14851;BMP180;7517;48.400;11.770;2023-03-01T08:07:30;96774.00;;;5.80
14851;BMP180;7517;48.400;11.770;2023-03-01T08:09:58;96779.00;;;5.90
14851;BMP180;7517;48.400;11.770;2023-03-01T08:12:25;96784.00;;;6.10
14851;BMP180;7517;48.400;11.770;2023-03-01T08:14:53;96771.00;;;6.20
14851;BMP180;7517;48.400;11.770;2023-03-01T08:17:21;96763.00;;;6.30
14851;BMP180;7517;48.400;11.770;2023-03-01T08:19:49;96762.00;;;6.40
14851;BMP180;7517;48.400;11.770;2023-03-01T08:22:17;96757.00;;;6.50
14851;BMP180;7517;48.400;11.770;2023-03-01T08:24:45;96754.00;;;6.60
14851;BMP180;7517;48.400;11.770;2023-03-01T08:27:15;96763.00;;;6.80
14851;BMP180;7517;48.400;11.770;2023-03-01T08:29:43;96761.00;;;6.90
14851;BMP180;7517;48.400;11.770;2023-03-01T08:32:10;96759.00;;;7.00
14851;BMP180;7517;48.400;11.770;2023-03-01T08:34:38;96754.00;;;7.20
14851;BMP180;7517;48.400;11.770;2023-03-01T08:37:05;96761.00;;;7.40
14851;BMP180;7517;48.400;11.770;2023-03-01T08:39:34;96763.00;;;7.50
14851;BMP180;7517;48.400;11.770;2023-03-01T08:42:02;96768.00;;;7.70
14851;BMP180;7517;48.400;11.770;2023-03-01T08:44:29;96770.00;;;7.80
14851;BMP180;7517;48.400;11.770;2023-03-01T08:46:56;96771.00;;;7.90
14851;BMP180;7517;48.400;11.770;2023-03-01T08:49:23;96770.00;;;8.10
14851;BMP180;7517;48.400;11.770;2023-03-01T08:51:51;96765.00;;;8.20
14851;BMP180;7517;48.400;11.770;2023-03-01T08:54:21;96762.00;;;8.40
14851;BMP180;7517;48.400;11.770;2023-03-01T08:56:50;96766.00;;;8.50
14851;BMP180;7517;48.400;11.770;2023-03-01T08:59:18;96757.00;;;8.60
14851;BMP180;7517;48.400;11.770;2023-03-01T09:01:46;96774.00;;;8.80
14851;BMP180;7517;48.400;11.770;2023-03-01T09:04:15;96765.00;;;8.90
14851;BMP180;7517;48.400;11.770;2023-03-01T09:06:43;96772.00;;;9.00
14851;BMP180;7517;48.400;11.770;2023-03-01T09:09:14;96762.00;;;9.10
14851;BMP180;7517;48.400;11.770;2023-03-01T09:11:42;96767.00;;;9.30
14851;BMP180;7517;48.400;11.770;2023-03-01T09:14:14;96758.00;;;9.40
14851;BMP180;7517;48.400;11.770;2023-03-01T09:16:42;96753.00;;;9.60
14851;BMP180;7517;48.400;11.770;2023-03-01T09:19:09;96754.00;;;9.70
14851;BMP180;7517;48.400;11.770;2023-03-01T09:21:37;96763.00;;;9.80
14851;BMP180;7517;48.400;11.770;2023-03-01T09:24:06;96764.00;;;10.00
14851;BMP180;7517;48.400;11.770;2023-03-01T09:26:33;96762.00;;;10.20
14851;BMP180;7517;48.400;11.770;2023-03-01T09:29:01;96763.00;;;10.30
14851;BMP180;7517;48.400;11.770;2023-03-01T09:31:30;96775.00;;;10.40
14851;BMP180;7517;48.400;11.770;2023-03-01T09:33:58;96765.00;;;10.50
14851;BMP180;7517;48.400;11.770;2023-03-01T09:36:25;96771.00;;;10.70
14851;BMP180;7517;48.400;11.770;2023-03-01T09:38:53;96761.00;;;10.80
14851;BMP180;7517;48.400;11.770;2023-03-01T09:41:50;96756.00;;;10.90
14851;BMP180;7517;48.400;11.770;2023-03-01T09:44:31;96762.00;;;11.10
14851;BMP180;7517;48.400;11.770;2023-03-01T09:47:03;96757.00;;;11.30
14851;BMP180;7517;48.400;11.770;2023-03-01T09:49:35;96759.00;;;11.40
14851;BMP180;7517;48.400;11.770;2023-03-01T09:52:21;96744.00;;;11.60
14851;BMP180;7517;48.400;11.770;2023-03-01T09:54:55;96750.00;;;11.70
14851;BMP180;7517;48.400;11.770;2023-03-01T09:57:32;96752.00;;;11.90
14851;BMP180;7517;48.400;11.770;2023-03-01T10:00:23;96749.00;;;12.10
14851;BMP180;7517;48.400;11.770;2023-03-01T10:03:01;96753.00;;;12.30
14851;BMP180;7517;48.400;11.770;2023-03-01T10:05:41;96749.00;;;12.50
14851;BMP180;7517;48.400;11.770;2023-03-01T10:08:28;96751.00;;;12.70
14851;BMP180;7517;48.400;11.770;2023-03-01T10:10:58;96741.00;;;12.90
14851;BMP180;7517;48.400;11.770;2023-03-01T10:13:34;96742.00;;;13.00
14851;BMP180;7517;48.400;11.770;2023-03-01T10:16:13;96743.00;;;13.10
14851;BMP180;7517;48.400;11.770;2023-03-01T10:18:46;96735.00;;;13.10
14851;BMP180;7517;48.400;11.770;2023-03-01T10:21:18;96728.00;;;13.20
14851;BMP180;7517;48.400;11.770;2023-03-01T10:23:50;96742.00;;;13.30
14851;BMP180;7517;48.400;11.770;2023-03-01T10:26:40;96733.00;;;13.40
14851;BMP180;7517;48.400;11.770;2023-03-01T10:29:23;96727.00;;;13.50
14851;BMP180;7517;48.400;11.770;2023-03-01T10:31:57;96731.00;;;13.60
14851;BMP180;7517;48.400;11.770;2023-03-01T10:34:32;96739.00;;;13.60
14851;BMP180;7517;48.400;11.770;2023-03-01T10:37:10;96731.00;;;13.60
14851;BMP180;7517;48.400;11.770;2023-03-01T10:39:54;96719.00;;;13.70
14851;BMP180;7517;48.400;11.770;2023-03-01T10:42:28;96715.00;;;13.70
14851;BMP180;7517;48.400;11.770;2023-03-01T10:44:56;96710.00;;;13.70
14851;BMP180;7517;48.400;11.770;2023-03-01T10:47:27;96709.00;;;13.80
14851;BMP180;7517;48.400;11.770;2023-03-01T10:50:03;96700.00;;;13.80
14851;BMP180;7517;48.400;11.770;2023-03-01T10:52:34;96705.00;;;13.80
14851;BMP180;7517;48.400;11.770;2023-03-01T10:55:23;96702.00;;;13.80
14851;BMP180;7517;48.400;11.770;2023-03-01T10:58:11;96698.00;;;13.80
14851;BMP180;7517;48.400;11.770;2023-03-01T11:00:52;96686.00;;;13.80
14851;BMP180;7517;48.400;11.770;2023-03-01T11:03:24;96681.00;;;13.70
14851;BMP180;7517;48.400;11.770;2023-03-01T11:05:58;96669.00;;;13.70
14851;BMP180;7517;48.400;11.770;2023-03-01T11:08:38;96677.00;;;13.60
14851;BMP180;7517;48.400;11.770;2023-03-01T11:11:29;96664.00;;;13.50
14851;BMP180;7517;48.400;11.770;2023-03-01T11:14:00;96664.00;;;13.40
14851;BMP180;7517;48.400;11.770;2023-03-01T11:16:37;96661.00;;;13.20
14851;BMP180;7517;48.400;11.770;2023-03-01T11:19:19;96649.00;;;13.00
14851;BMP180;7517;48.400;11.770;2023-03-01T11:22:02;96657.00;;;12.90
14851;BMP180;7517;48.400;11.770;2023-03-01T11:24:37;96650.00;;;12.70
14851;BMP180;7517;48.400;11.770;2023-03-01T11:27:22;96642.00;;;12.60
14851;BMP180;7517;48.400;11.770;2023-03-01T11:29:57;96635.00;;;12.60
14851;BMP180;7517;48.400;11.770;2023-03-01T11:32:35;96638.00;;;12.50
14851;BMP180;7517;48.400;11.770;2023-03-01T11:35:16;96630.00;;;12.40
14851;BMP180;7517;48.400;11.770;2023-03-01T11:38:01;96628.00;;;12.40
14851;BMP180;7517;48.400;11.770;2023-03-01T11:40:37;96623.00;;;12.30
14851;BMP180;7517;48.400;11.770;2023-03-01T11:43:17;96605.00;;;12.30
14851;BMP180;7517;48.400;11.770;2023-03-01T11:46:08;96605.00;;;12.30
14851;BMP180;7517;48.400;11.770;2023-03-01T11:48:54;96601.00;;;12.30
14851;BMP180;7517;48.400;11.770;2023-03-01T11:51:41;96598.00;;;12.20
14851;BMP180;7517;48.400;11.770;2023-03-01T11:54:37;96587.00;;;12.20
14851;BMP180;7517;48.400;11.770;2023-03-01T12:00:20;96584.00;;;12.20
14851;BMP180;7517;48.400;11.770;2023-03-01T12:03:25;96573.00;;;12.20
14851;BMP180;7517;48.400;11.770;2023-03-01T12:09:27;96571.00;;;12.20
14851;BMP180;7517;48.400;11.770;2023-03-01T12:12:30;96577.00;;;12.20
14851;BMP180;7517;48.400;11.770;2023-03-01T12:15:28;96566.00;;;12.20
14851;BMP180;7517;48.400;11.770;2023-03-01T12:21:20;96561.00;;;12.20
14851;BMP180;7517;48.400;11.770;2023-03-01T12:27:06;96560.00;;;12.20
14851;BMP180;7517;48.400;11.770;2023-03-01T12:29:47;96548.00;;;12.20
14851;BMP180;7517;48.400;11.770;2023-03-01T12:32:33;96554.00;;;12.10
14851;BMP180;7517;48.400;11.770;2023-03-01T12:35:20;96540.00;;;12.10
14851;BMP180;7517;48.400;11.770;2023-03-01T12:37:58;96533.00;;;12.10
14851;BMP180;7517;48.400;11.770;2023-03-01T12:40:45;96534.00;;;12.10
14851;BMP180;7517;48.400;11.770;2023-03-01T12:43:39;96531.00;;;12.20
14851;BMP180;7517;48.400;11.770;2023-03-01T12:46:23;96529.00;;;12.20
14851;BMP180;7517;48.400;11.770;2023-03-01T12:49:04;96515.00;;;12.20
14851;BMP180;7517;48.400;11.770;2023-03-01T12:51:37;96515.00;;;12.20
14851;BMP180;7517;48.400;11.770;2023-03-01T12:54:15;96515.00;;;12.10
14851;BMP180;7517;48.400;11.770;2023-03-01T12:56:46;96516.00;;;12.10
14851;BMP180;7517;48.400;11.770;2023-03-01T12:59:25;96531.00;;;12.20
14851;BMP180;7517;48.400;11.770;2023-03-01T13:02:13;96520.00;;;12.20
14851;BMP180;7517;48.400;11.770;2023-03-01T13:05:00;96525.00;;;12.20
14851;BMP180;7517;48.400;11.770;2023-03-01T13:07:41;96526.00;;;12.20
14851;BMP180;7517;48.400;11.770;2023-03-01T13:10:24;96509.00;;;12.30
14851;BMP180;7517;48.400;11.770;2023-03-01T13:13:14;96519.00;;;12.30
14851;BMP180;7517;48.400;11.770;2023-03-01T13:15:53;96531.00;;;12.40
14851;BMP180;7517;48.400;11.770;2023-03-01T13:18:31;96531.00;;;12.40
14851;BMP180;7517;48.400;11.770;2023-03-01T13:21:02;96529.00;;;12.40
14851;BMP180;7517;48.400;11.770;2023-03-01T13:23:36;96530.00;;;12.50
14851;BMP180;7517;48.400;11.770;2023-03-01T13:26:14;96527.00;;;12.50
14851;BMP180;7517;48.400;11.770;2023-03-01T13:28:52;96523.00;;;12.50
14851;BMP180;7517;48.400;11.770;2023-03-01T13:31:58;96528.00;;;12.50
14851;BMP180;7517;48.400;11.770;2023-03-01T13:35:02;96531.00;;;12.60
14851;BMP180;7517;48.400;11.770;2023-03-01T13:37:36;96530.00;;;12.50
14851;BMP180;7517;48.400;11.770;2023-03-01T13:40:56;96525.00;;;12.50
14851;BMP180;7517;48.400;11.770;2023-03-01T13:43:31;96509.00;;;12.50
14851;BMP180;7517;48.400;11.770;2023-03-01T13:46:02;96508.00;;;12.50
14851;BMP180;7517;48.400;11.770;2023-03-01T13:48:38;96515.00;;;12.50
14851;BMP180;7517;48.400;11.770;2023-03-01T13:51:11;96504.00;;;12.60
14851;BMP180;7517;48.400;11.770;2023-03-01T13:53:42;96500.00;;;12.60
14851;BMP180;7517;48.400;11.770;2023-03-01T13:56:15;96504.00;;;12.60
14851;BMP180;7517;48.400;11.770;2023-03-01T13:58:53;96505.00;;;12.70
14851;BMP180;7517;48.400;11.770;2023-03-01T14:01:26;96496.00;;;12.70
14851;BMP180;7517;48.400;11.770;2023-03-01T14:03:53;96493.00;;;12.70
14851;BMP180;7517;48.400;11.770;2023-03-01T14:06:25;96493.00;;;12.80
14851;BMP180;7517;48.400;11.770;2023-03-01T14:09:04;96503.00;;;12.80
14851;BMP180;7517;48.400;11.770;2023-03-01T14:12:20;96495.00;;;12.80
14851;BMP180;7517;48.400;11.770;2023-03-01T14:14:59;96493.00;;;12.80
14851;BMP180;7517;48.400;11.770;2023-03-01T14:17:49;96493.00;;;12.80
14851;BMP180;7517;48.400;11.770;2023-03-01T14:20:24;96487.00;;;12.90
14851;BMP180;7517;48.400;11.770;2023-03-01T14:22:58;96491.00;;;12.90
14851;BMP180;7517;48.400;11.770;2023-03-01T14:25:30;96472.00;;;12.90
14851;BMP180;7517;48.400;11.770;2023-03-01T14:28:11;96469.00;;;12.90
14851;BMP180;7517;48.400;11.770;2023-03-01T14:30:43;96474.00;;;13.00
14851;BMP180;7517;48.400;11.770;2023-03-01T14:33:23;96464.00;;;13.00
14851;BMP180;7517;48.400;11.770;2023-03-01T14:35:58;96465.00;;;13.00
14851;BMP180;7517;48.400;11.770;2023-03-01T14:38:35;96463.00;;;13.10
14851;BMP180;7517;48.400;11.770;2023-03-01T14:41:08;96457.00;;;13.10
14851;BMP180;7517;48.400;11.770;2023-03-01T14:43:40;96467.00;;;13.10
14851;BMP180;7517;48.400;11.770;2023-03-01T14:46:19;96457.00;;;13.20
14851;BMP180;7517;48.400;11.770;2023-03-01T14:48:51;96454.00;;;13.20
14851;BMP180;7517;48.400;11.770;2023-03-01T14:51:19;96458.00;;;13.20
14851;BMP180;7517;48.400;11.770;2023-03-01T14:53:49;96446.00;;;13.20
14851;BMP180;7517;48.400;11.770;2023-03-01T14:56:19;96448.00;;;13.30
14851;BMP180;7517;48.400;11.770;2023-03-01T14:58:51;96444.00;;;13.30
14851;BMP180;7517;48.400;11.770;2023-03-01T15:01:27;96439.00;;;13.30
14851;BMP180;7517;48.400;11.770;2023-03-01T15:04:03;96430.00;;;13.30